createdAt,value
2018-07-30T00:02:03.375Z,100733.27
2018-07-30T00:04:31.995Z,100732.91
2018-07-30T00:07:00.628Z,100732.91
2018-07-30T00:09:29.378Z,100729.89
2018-07-30T00:11:58.064Z,100725.94
2018-07-30T00:14:26.681Z,100727.73
2018-07-30T00:16:55.341Z,100728.24
2018-07-30T00:19:23.926Z,100725.94
2018-07-30T00:21:52.529Z,100730.37
2018-07-30T00:24:21.187Z,100727.88
2018-07-30T00:26:49.974Z,100722.59
2018-07-30T00:29:18.626Z,100721.28
2018-07-30T00:31:47.345Z,100720.20
2018-07-30T00:34:15.941Z,100714.84
2018-07-30T00:36:44.512Z,100721.30
2018-07-30T00:39:13.422Z,100724.08
2018-07-30T00:41:42.163Z,100713.30
2018-07-30T00:44:10.903Z,100714.86
2018-07-30T00:46:39.649Z,100715.09
2018-07-30T00:49:08.593Z,100716.05
2018-07-30T00:51:37.195Z,100711.76
2018-07-30T00:54:05.870Z,100712.70
2018-07-30T00:56:34.425Z,100705.65
2018-07-30T00:59:03.395Z,100714.97
2018-07-30T01:01:32.168Z,100713.31
2018-07-30T01:04:00.908Z,100716.42
2018-07-30T01:06:29.506Z,100713.31
2018-07-30T01:08:58.061Z,100720.38
2018-07-30T01:11:26.672Z,100719.91
2018-07-30T01:13:55.389Z,100708.99
2018-07-30T01:16:24.151Z,100712.09
2018-07-30T01:18:52.861Z,100708.15
2018-07-30T01:21:21.829Z,100710.31
2018-07-30T01:23:50.412Z,100708.99
2018-07-30T01:26:24.217Z,100712.00
2018-07-30T01:28:53.177Z,100714.73
2018-07-30T01:31:21.796Z,100710.45
2018-07-30T01:33:50.439Z,100713.55
2018-07-30T01:36:19.240Z,100717.84
2018-07-30T01:38:48.242Z,100717.03
2018-07-30T01:41:16.913Z,100720.62
2018-07-30T01:43:45.531Z,100720.14
2018-07-30T01:46:14.119Z,100728.16
2018-07-30T01:48:43.153Z,100724.44
2018-07-30T01:51:11.909Z,100727.21
2018-07-30T01:53:41.397Z,100729.01
2018-07-30T01:56:10.107Z,100727.69
2018-07-30T01:58:38.685Z,100736.30
2018-07-30T02:01:07.412Z,100735.13
2018-07-30T02:03:36.030Z,100733.19
2018-07-30T02:06:04.790Z,100737.52
2018-07-30T02:08:33.478Z,100725.52
2018-07-30T02:11:02.177Z,100734.04
2018-07-30T02:13:30.897Z,100731.41
2018-07-30T02:15:59.569Z,100732.86
2018-07-30T02:18:28.123Z,100731.54
2018-07-30T02:20:56.761Z,100735.13
2018-07-30T02:23:25.489Z,100735.59
2018-07-30T02:25:54.486Z,100734.75
2018-07-30T02:28:23.457Z,100733.44
2018-07-30T02:30:52.611Z,100730.32
2018-07-30T02:33:21.223Z,100734.75
2018-07-30T02:35:49.826Z,100719.08
2018-07-30T02:38:18.533Z,100733.09
2018-07-30T02:40:47.143Z,100730.09
2018-07-30T02:43:15.926Z,100731.03
2018-07-30T02:45:44.703Z,100728.91
2018-07-30T02:48:14.817Z,100725.05
2018-07-30T02:50:43.384Z,100723.03
2018-07-30T02:53:11.977Z,100735.84
2018-07-30T02:55:40.567Z,100733.67
2018-07-30T02:58:09.192Z,100731.98
2018-07-30T03:00:37.851Z,100724.31
2018-07-30T03:03:06.741Z,100725.88
2018-07-30T03:05:35.491Z,100719.41
2018-07-30T03:08:04.078Z,100719.19
2018-07-30T03:10:32.674Z,100718.81
2018-07-30T03:13:01.245Z,100720.73
2018-07-30T03:15:29.963Z,100721.81
2018-07-30T03:17:58.724Z,100716.64
2018-07-30T03:20:27.682Z,100715.09
2018-07-30T03:22:56.471Z,100721.81
2018-07-30T03:25:25.037Z,100719.28
2018-07-30T03:27:53.657Z,100719.89
2018-07-30T03:30:22.237Z,100721.67
2018-07-30T03:32:50.848Z,100726.10
2018-07-30T03:35:19.638Z,100725.86
2018-07-30T03:37:48.384Z,100725.63
2018-07-30T03:40:17.071Z,100728.50
2018-07-30T03:42:45.718Z,100732.58
2018-07-30T03:45:14.293Z,100731.27
2018-07-30T03:47:42.904Z,100732.34
2018-07-30T03:50:14.585Z,100734.27
2018-07-30T03:52:43.702Z,100728.25
2018-07-30T03:55:12.754Z,100737.12
2018-07-30T03:57:41.447Z,100734.50
2018-07-30T04:00:11.798Z,100735.91
2018-07-30T04:02:40.817Z,100734.59
2018-07-30T04:05:09.413Z,100737.60
2018-07-30T04:07:38.432Z,100737.94
2018-07-30T04:10:08.891Z,100739.26
2018-07-30T04:12:37.725Z,100741.80
2018-07-30T04:15:07.248Z,100738.78
2018-07-30T04:17:35.849Z,100747.53
2018-07-30T04:20:04.541Z,100754.96
2018-07-30T04:22:33.128Z,100758.44
2018-07-30T04:25:01.868Z,100748.25
2018-07-30T04:27:30.603Z,100750.88
2018-07-30T04:29:59.387Z,100746.69
2018-07-30T04:32:28.129Z,100755.91
2018-07-30T04:34:56.725Z,100760.34
2018-07-30T04:37:25.309Z,100759.86
2018-07-30T04:39:53.949Z,100760.58
2018-07-30T04:42:22.601Z,100757.47
2018-07-30T04:44:52.064Z,100753.89
2018-07-30T04:47:20.779Z,100759.16
2018-07-30T04:49:49.550Z,100754.50
2018-07-30T04:52:18.139Z,100756.05
2018-07-30T04:54:46.682Z,100765.14
2018-07-30T04:57:15.404Z,100763.82
2018-07-30T04:59:44.110Z,100764.67
2018-07-30T05:02:12.779Z,100761.09
2018-07-30T05:04:41.760Z,100761.91
2018-07-30T05:07:10.695Z,100754.50
2018-07-30T05:09:39.413Z,100753.53
2018-07-30T05:12:08.022Z,100753.89
2018-07-30T05:14:36.686Z,100752.95
2018-07-30T05:17:05.378Z,100756.77
2018-07-30T05:19:34.107Z,100758.56
2018-07-30T05:22:02.887Z,100768.39
2018-07-30T05:24:31.921Z,100770.08
2018-07-30T05:27:00.521Z,100767.07
2018-07-30T05:29:29.165Z,100770.89
2018-07-30T05:31:57.726Z,100765.63
2018-07-30T05:34:26.370Z,100767.78
2018-07-30T05:36:55.108Z,100781.56
2018-07-30T05:39:24.333Z,100774.84
2018-07-30T05:41:53.974Z,100765.05
2018-07-30T05:44:22.579Z,100759.52
2018-07-30T05:46:51.264Z,100767.19
2018-07-30T05:49:19.851Z,100756.41
2018-07-30T05:51:48.738Z,100769.72
2018-07-30T05:54:19.214Z,100772.16
2018-07-30T05:56:48.737Z,100771.41
2018-07-30T05:59:18.294Z,100776.11
2018-07-30T06:01:46.933Z,100773.34
2018-07-30T06:04:15.615Z,100785.91
2018-07-30T06:06:44.206Z,100783.27
2018-07-30T06:09:12.833Z,100786.66
2018-07-30T06:11:41.565Z,100787.97
2018-07-30T06:14:10.509Z,100792.27
2018-07-30T06:16:39.116Z,100792.97
2018-07-30T06:19:07.682Z,100798.48
2018-07-30T06:21:36.261Z,100796.45
2018-07-30T06:24:05.123Z,100797.91
2018-07-30T06:26:33.802Z,100798.38
2018-07-30T06:29:02.793Z,100803.98
2018-07-30T06:31:31.555Z,100802.66
2018-07-30T06:34:00.129Z,100801.85
2018-07-30T06:36:28.702Z,100795.48
2018-07-30T06:38:57.231Z,100791.30
2018-07-30T06:41:26.833Z,100799.44
2018-07-30T06:43:55.582Z,100801.84
2018-07-30T06:46:25.085Z,100805.05
2018-07-30T06:48:54.375Z,100808.05
2018-07-30T06:51:23.075Z,100799.66
2018-07-30T06:53:51.610Z,100805.75
2018-07-30T06:56:20.209Z,100800.38
2018-07-30T06:58:48.823Z,100805.65
2018-07-30T07:01:17.830Z,100803.37
2018-07-30T07:03:46.583Z,100807.56
2018-07-30T07:06:16.480Z,100806.59
2018-07-30T07:08:45.117Z,100814.62
2018-07-30T07:11:13.702Z,100815.09
2018-07-30T07:13:42.350Z,100814.71
2018-07-30T07:16:11.071Z,100823.45
2018-07-30T07:18:40.497Z,100823.81
2018-07-30T07:21:11.938Z,100825.73
2018-07-30T07:23:44.593Z,100831.61
2018-07-30T07:26:13.258Z,100830.05
2018-07-30T07:28:41.986Z,100825.61
2018-07-30T07:31:10.612Z,100820.19
2018-07-30T07:33:39.175Z,100823.53
2018-07-30T07:36:08.783Z,100823.20
2018-07-30T07:38:38.348Z,100820.42
2018-07-30T07:41:08.055Z,100826.91
2018-07-30T07:43:36.656Z,100827.62
2018-07-30T07:46:05.291Z,100822.45
2018-07-30T07:48:33.882Z,100828.23
2018-07-30T07:51:03.102Z,100825.22
2018-07-30T07:53:32.552Z,100828.48
2018-07-30T07:56:02.597Z,100834.71
2018-07-30T07:58:31.390Z,100843.48
2018-07-30T08:01:00.013Z,100844.42
2018-07-30T08:03:28.649Z,100839.66
2018-07-30T08:05:57.205Z,100844.94
2018-07-30T08:08:25.812Z,100838.34
2018-07-30T08:10:54.640Z,100833.53
2018-07-30T08:13:24.233Z,100833.87
2018-07-30T08:15:55.163Z,100832.07
2018-07-30T08:18:24.208Z,100825.84
2018-07-30T08:20:52.845Z,100826.80
2018-07-30T08:23:21.485Z,100828.48
2018-07-30T08:25:50.425Z,100828.48
2018-07-30T08:28:21.670Z,100825.84
2018-07-30T08:30:54.722Z,100829.33
2018-07-30T08:33:27.415Z,100835.78
2018-07-30T08:35:56.102Z,100829.89
2018-07-30T08:38:24.705Z,100830.34
2018-07-30T08:40:53.298Z,100835.38
2018-07-30T08:43:22.043Z,100835.13
2018-07-30T08:45:54.543Z,100836.20
2018-07-30T08:48:26.478Z,100836.91
2018-07-30T08:53:35.218Z,100836.78
2018-07-30T08:56:03.871Z,100842.52
2018-07-30T08:58:32.485Z,100840.80
2018-07-30T09:01:01.818Z,100839.59
2018-07-30T09:03:31.759Z,100833.55
2018-07-30T09:06:00.880Z,100833.05
2018-07-30T09:08:30.351Z,100827.27
2018-07-30T09:10:59.025Z,100836.59
2018-07-30T09:13:27.551Z,100842.61
2018-07-30T09:15:56.160Z,100847.89
2018-07-30T09:18:24.991Z,100850.17
2018-07-30T09:20:53.949Z,100858.09
2018-07-30T09:23:26.379Z,100863.13
2018-07-30T09:25:58.613Z,100857.11
2018-07-30T09:28:27.477Z,100865.59
2018-07-30T09:30:56.045Z,100863.55
2018-07-30T09:33:24.690Z,100858.96
2018-07-30T09:35:55.562Z,100850.04
2018-07-30T09:38:27.227Z,100853.48
2018-07-30T09:41:03.586Z,100853.78
2018-07-30T09:43:36.306Z,100848.34
2018-07-30T09:46:04.933Z,100846.98
2018-07-30T09:48:34.941Z,100848.85
2018-07-30T09:51:03.531Z,100848.59
2018-07-30T09:53:34.681Z,100845.28
2018-07-30T09:56:08.203Z,100845.33
2018-07-30T09:58:39.341Z,100847.66
2018-07-30T10:01:14.860Z,100848.31
2018-07-30T10:03:43.465Z,100855.45
2018-07-30T10:06:12.021Z,100856.12
2018-07-30T10:08:40.540Z,100853.55
2018-07-30T10:11:09.163Z,100846.11
2018-07-30T10:13:40.364Z,100859.34
2018-07-30T10:16:10.070Z,100861.90
2018-07-30T10:18:38.745Z,100862.06
2018-07-30T10:21:13.734Z,100863.56
2018-07-30T10:23:42.289Z,100871.00
2018-07-30T10:26:10.901Z,100875.76
2018-07-30T10:28:40.567Z,100876.28
2018-07-30T10:31:11.383Z,100879.95
2018-07-30T10:33:40.813Z,100896.46
2018-07-30T10:36:09.370Z,100891.25
2018-07-30T10:38:37.913Z,100902.15
2018-07-30T10:41:06.514Z,100904.91
2018-07-30T10:43:35.103Z,100906.59
2018-07-30T10:46:04.736Z,100898.73
2018-07-30T10:48:34.605Z,100899.55
2018-07-30T10:51:04.218Z,100898.15
2018-07-30T10:53:32.838Z,100901.78
2018-07-30T10:56:01.444Z,100905.30
2018-07-30T10:58:30.055Z,100907.16
2018-07-30T11:00:58.664Z,100914.06
2018-07-30T11:03:27.666Z,100924.80
2018-07-30T11:05:57.774Z,100927.70
2018-07-30T11:08:27.427Z,100922.31
2018-07-30T11:10:55.997Z,100928.11
2018-07-30T11:13:24.503Z,100933.41
2018-07-30T11:15:54.090Z,100937.48
2018-07-30T11:18:24.672Z,100931.76
2018-07-30T11:20:54.581Z,100940.32
2018-07-30T11:23:25.870Z,100949.22
2018-07-30T11:25:59.390Z,100952.48
2018-07-30T11:28:28.180Z,100958.80
2018-07-30T11:30:57.663Z,100960.39
2018-07-30T11:33:26.642Z,100970.82
2018-07-30T11:45:04.173Z,100973.71
2018-07-30T11:47:33.179Z,100974.77
2018-07-30T11:50:02.096Z,100995.32
2018-07-30T11:52:35.856Z,100987.17
2018-07-30T12:04:14.379Z,100995.16
2018-07-30T12:06:43.290Z,101012.16
2018-07-30T12:09:12.517Z,100999.54
2018-07-30T12:20:40.206Z,101003.27
2018-07-30T12:23:09.055Z,101005.33
2018-07-30T12:25:38.042Z,101006.44
2018-07-30T12:28:10.509Z,101015.30
2018-07-30T12:33:43.229Z,101012.20
2018-07-30T12:36:18.576Z,101016.73
2018-07-30T12:38:47.399Z,101039.67
2018-07-30T12:41:16.220Z,101026.03
2018-07-30T12:43:45.368Z,101030.09
2018-07-30T12:46:19.225Z,101031.07
2018-07-30T12:48:55.212Z,101037.23
2018-07-30T12:51:34.238Z,101035.81
2018-07-30T12:54:03.633Z,101034.50
2018-07-30T12:56:32.566Z,101040.59
2018-07-30T12:59:01.390Z,101046.69
2018-07-30T13:01:30.670Z,101049.31
2018-07-30T13:04:04.054Z,101059.07
2018-07-30T13:06:36.076Z,101057.70
2018-07-30T13:09:08.582Z,101058.40
2018-07-30T13:11:38.515Z,101059.63
2018-07-30T13:14:07.663Z,101066.56
2018-07-30T13:16:36.596Z,101070.05
2018-07-30T13:28:14.561Z,101080.61
2018-07-30T13:30:43.747Z,101088.80
2018-07-30T13:33:12.820Z,101108.72
2018-07-30T13:45:00.586Z,101116.81
2018-07-30T13:47:29.802Z,101111.37
2018-07-30T13:49:58.863Z,101108.22
2018-07-30T13:52:31.572Z,101111.20
2018-07-30T13:55:02.911Z,101117.30
2018-07-30T13:57:38.947Z,101120.75
2018-07-30T14:00:12.310Z,101115.02
2018-07-30T14:02:41.221Z,101112.37
2018-07-30T14:05:10.718Z,101121.30
2018-07-30T14:07:40.283Z,101132.48
2018-07-30T14:19:16.617Z,101134.59
2018-07-30T14:21:45.619Z,101134.39
2018-07-30T14:24:14.831Z,101138.59
2018-07-30T14:36:09.587Z,101135.82
2018-07-30T14:38:39.424Z,101141.25
2018-07-30T14:41:09.775Z,101138.73
2018-07-30T14:55:42.868Z,101145.00
2018-07-30T14:58:11.849Z,101149.31
2018-07-30T15:00:44.438Z,101149.66
2018-07-30T15:12:23.155Z,101157.78
2018-07-30T15:14:52.131Z,101158.41
2018-07-30T15:17:21.550Z,101162.11
2018-07-30T15:28:58.587Z,101149.01
2018-07-30T15:31:28.646Z,101146.60
2018-07-30T15:33:58.079Z,101145.19
2018-07-30T15:45:35.157Z,101143.54
2018-07-30T15:48:04.628Z,101148.94
2018-07-30T15:50:34.643Z,101151.66
2018-07-30T16:02:12.603Z,101159.80
2018-07-30T16:04:41.860Z,101157.59
2018-07-30T16:07:10.858Z,101159.37
2018-07-30T16:18:55.882Z,101172.37
2018-07-30T16:21:25.474Z,101172.22
2018-07-30T16:23:55.644Z,101172.05
2018-07-30T16:35:53.637Z,101166.66
2018-07-30T16:38:24.526Z,101172.97
2018-07-30T16:40:55.828Z,101168.16
2018-07-30T16:55:33.603Z,101189.80
2018-07-30T17:16:38.516Z,101189.41
2018-07-30T17:19:39.975Z,101187.18
2018-07-30T17:27:56.581Z,101193.03
2018-07-30T17:30:25.254Z,101188.35
2018-07-30T17:32:53.938Z,101179.59
2018-07-30T17:35:22.849Z,101177.53
2018-07-30T17:44:41.729Z,101177.64
2018-07-30T17:47:10.343Z,101193.27
2018-07-30T17:49:39.093Z,101194.36
2018-07-30T17:52:07.790Z,101192.95
2018-07-30T17:55:00.169Z,101196.91
2018-07-30T17:57:31.457Z,101196.34
2018-07-30T18:00:07.103Z,101198.80
2018-07-30T18:02:35.756Z,101206.88
2018-07-30T18:05:10.042Z,101202.91
2018-07-30T18:07:38.676Z,101206.37
2018-07-30T18:10:08.383Z,101212.52
2018-07-30T18:12:42.591Z,101218.42
2018-07-30T18:15:24.178Z,101217.95
2018-07-30T18:17:56.180Z,101218.80
2018-07-30T18:20:24.801Z,101226.50
2018-07-30T18:22:54.350Z,101229.16
2018-07-30T18:25:23.065Z,101228.42
2018-07-30T18:32:55.389Z,101235.31
2018-07-30T18:35:26.713Z,101225.94
2018-07-30T18:37:56.297Z,101233.02
2018-07-30T18:40:25.177Z,101230.85
2018-07-30T18:42:54.630Z,101234.34
2018-07-30T18:45:25.972Z,101238.78
2018-07-30T18:47:55.097Z,101236.84
2018-07-30T18:50:24.703Z,101236.13
2018-07-30T18:52:54.628Z,101247.89
2018-07-30T18:55:27.418Z,101245.12
2018-07-30T18:57:56.243Z,101247.37
2018-07-30T19:00:25.847Z,101250.38
2018-07-30T19:02:57.856Z,101248.80
2018-07-30T19:05:27.345Z,101251.05
2018-07-30T19:07:57.280Z,101249.72
2018-07-30T19:10:27.504Z,101253.34
2018-07-30T19:12:57.311Z,101254.64
2018-07-30T19:15:26.109Z,101249.31
2018-07-30T19:17:55.017Z,101255.36
2018-07-30T19:20:24.554Z,101258.70
2018-07-30T19:22:54.623Z,101253.24
2018-07-30T19:25:26.787Z,101252.62
2018-07-30T19:27:56.840Z,101264.22
2018-07-30T19:30:25.819Z,101252.19
2018-07-30T19:32:54.652Z,101265.34
2018-07-30T19:35:23.741Z,101268.16
2018-07-30T19:37:52.930Z,101270.77
2018-07-30T19:40:22.159Z,101275.39
2018-07-30T19:42:51.414Z,101272.93
2018-07-30T19:45:21.552Z,101274.54
2018-07-30T19:47:51.875Z,101279.44
2018-07-30T19:50:21.368Z,101281.34
2018-07-30T19:52:50.370Z,101277.48
2018-07-30T19:55:19.818Z,101280.58
2018-07-30T19:57:49.103Z,101280.38
2018-07-30T20:00:18.419Z,101285.64
2018-07-30T20:02:47.574Z,101286.02
2018-07-30T20:05:17.634Z,101289.85
2018-07-30T20:07:46.426Z,101287.98
2018-07-30T20:10:15.790Z,101292.28
2018-07-30T20:12:45.970Z,101302.73
2018-07-30T20:15:15.292Z,101296.99
2018-07-30T20:17:44.562Z,101284.16
2018-07-30T20:20:15.562Z,101293.77
2018-07-30T20:22:44.958Z,101291.98
2018-07-30T20:25:14.644Z,101302.31
2018-07-30T20:27:44.402Z,101304.45
2018-07-30T20:30:22.627Z,101314.52
2018-07-30T20:32:51.762Z,101316.81
2018-07-30T20:35:20.998Z,101313.20
2018-07-30T20:37:49.880Z,101309.62
2018-07-30T20:40:18.654Z,101304.19
2018-07-30T20:42:47.466Z,101311.04
2018-07-30T20:45:16.555Z,101319.45
2018-07-30T22:08:41.390Z,101334.19
2018-07-30T22:11:10.418Z,101347.36
2018-07-30T22:13:39.470Z,101347.94
2018-07-30T22:16:14.887Z,101340.51
2018-07-30T22:18:46.534Z,101335.56
2018-07-30T22:21:15.355Z,101345.52
2018-07-30T22:23:44.227Z,101342.61
2018-07-30T22:26:13.082Z,101345.83
2018-07-30T22:28:41.895Z,101338.05
2018-07-30T22:31:11.493Z,101338.59
2018-07-30T22:33:42.723Z,101331.66
2018-07-30T22:36:26.564Z,101328.64
2018-07-30T22:38:55.392Z,101320.36
2018-07-30T22:41:24.322Z,101325.28
2018-07-30T22:43:54.354Z,101328.37
2018-07-30T22:46:23.286Z,101330.55
2018-07-30T22:48:52.574Z,101335.16
2018-07-30T22:51:21.745Z,101332.64
2018-07-30T22:53:50.877Z,101334.78
2018-07-30T22:56:19.692Z,101343.17
2018-07-30T22:58:48.502Z,101334.43
2018-07-30T23:01:17.462Z,101338.84
2018-07-30T23:03:46.354Z,101336.79
2018-07-30T23:06:16.304Z,101335.09
2018-07-30T23:08:45.583Z,101339.97
2018-07-30T23:11:14.960Z,101344.89
2018-07-30T23:13:43.758Z,101332.19
2018-07-30T23:16:12.472Z,101329.30
2018-07-30T23:18:41.155Z,101347.33
2018-07-30T23:21:10.039Z,101349.61
2018-07-30T23:23:40.342Z,101348.49
2018-07-30T23:26:09.576Z,101344.16
2018-07-30T23:28:38.905Z,101332.98
2018-07-30T23:31:07.619Z,101335.41
2018-07-30T23:33:36.319Z,101339.86
2018-07-30T23:36:05.090Z,101339.48
2018-07-30T23:38:33.990Z,101346.06
2018-07-30T23:41:03.328Z,101343.42
2018-07-30T23:43:32.855Z,101350.94
2018-07-30T23:46:02.637Z,101350.47
2018-07-30T23:48:31.366Z,101350.94
2018-07-30T23:51:00.121Z,101361.00
2018-07-30T23:53:28.870Z,101361.47
2018-07-30T23:55:58.650Z,101364.09
2018-07-30T23:58:28.021Z,101355.85
